Terminal Aerodrome Forecast
Issued by NWS Amarillo, TX

Current Version | Previous Version | Text Only | Print | Product List | Glossary On
Versions: 1 2 3 4 5 6 7 8 9 10 11 12 13
000
FTUS44 KAMA 171721
TAFDHT
TAF
KDHT 171721Z 1718/1818 24025G35KT P6SM BKN250
     FM172200 24031G41KT P6SM BKN250
     FM180000 24013KT P6SM BKN250
     FM180900 31020G30KT P6SM SKC=

USA.gov is the U.S. government's official web portal to all federal, state and local government web resources and services.